sensor_id;sensor_type;location;lat;lon;timestamp;pressure;altitude;pressure_sealevel;temperature;humidity
28008;BME280;15333;50.010;20.020;2022-12-07T00:02:04;98321.44;;;1.72;100.00
28008;BME280;15333;50.010;20.020;2022-12-07T00:05:05;98312.47;;;1.76;100.00
28008;BME280;15333;50.010;20.020;2022-12-07T00:08:06;98317.72;;;1.76;100.00
28008;BME280;15333;50.010;20.020;2022-12-07T00:11:14;98317.88;;;1.73;100.00
28008;BME280;15333;50.010;20.020;2022-12-07T00:14:16;98313.22;;;1.78;100.00
28008;BME280;15333;50.010;20.020;2022-12-07T00:17:17;98314.31;;;1.74;100.00
28008;BME280;15333;50.010;20.020;2022-12-07T00:20:18;98317.88;;;1.73;100.00
28008;BME280;15333;50.010;20.020;2022-12-07T00:23:19;98320.28;;;1.78;100.00
28008;BME280;15333;50.010;20.020;2022-12-07T00:29:25;98312.28;;;1.79;100.00
28008;BME280;15333;50.010;20.020;2022-12-07T00:32:26;98319.28;;;1.80;100.00
28008;BME280;15333;50.010;20.020;2022-12-07T00:35:27;98312.47;;;1.76;100.00
28008;BME280;15333;50.010;20.020;2022-12-07T00:38:30;98316.03;;;1.75;100.00
28008;BME280;15333;50.010;20.020;2022-12-07T00:41:31;98319.72;;;1.71;100.00
28008;BME280;15333;50.010;20.020;2022-12-07T00:44:32;98321.44;;;1.72;100.00
28008;BME280;15333;50.010;20.020;2022-12-07T00:47:33;98313.50;;;1.72;100.00
28008;BME280;15333;50.010;20.020;2022-12-07T00:50:34;98319.88;;;1.68;100.00
28008;BME280;15333;50.010;20.020;2022-12-07T00:53:35;98308.19;;;1.74;100.00
28008;BME280;15333;50.010;20.020;2022-12-07T00:56:36;98318.78;;;1.72;100.00
28008;BME280;15333;50.010;20.020;2022-12-07T00:59:37;98305.59;;;1.72;100.00
28008;BME280;15333;50.010;20.020;2022-12-07T01:02:38;98308.53;;;1.66;100.00
28008;BME280;15333;50.010;20.020;2022-12-07T01:05:39;98305.91;;;1.66;100.00
28008;BME280;15333;50.010;20.020;2022-12-07T01:08:40;98301.91;;;1.76;100.00
28008;BME280;15333;50.010;20.020;2022-12-07T01:11:41;98304.97;;;1.67;100.00
28008;BME280;15333;50.010;20.020;2022-12-07T01:14:42;98305.09;;;1.64;100.00
28008;BME280;15333;50.010;20.020;2022-12-07T01:17:43;98305.78;;;1.69;100.00
28008;BME280;15333;50.010;20.020;2022-12-07T01:20:44;98303.19;;;1.68;100.00
28008;BME280;15333;50.010;20.020;2022-12-07T01:23:45;98295.22;;;1.69;100.00
28008;BME280;15333;50.010;20.020;2022-12-07T01:26:49;98302.22;;;1.70;100.00
28008;BME280;15333;50.010;20.020;2022-12-07T01:29:50;98302.09;;;1.72;100.00
28008;BME280;15333;50.010;20.020;2022-12-07T01:32:51;98289.94;;;1.69;100.00
28008;BME280;15333;50.010;20.020;2022-12-07T01:35:52;98297.19;;;1.64;100.00
28008;BME280;15333;50.010;20.020;2022-12-07T01:38:58;98292.09;;;1.61;100.00
28008;BME280;15333;50.010;20.020;2022-12-07T01:41:59;98286.22;;;1.73;100.00
28008;BME280;15333;50.010;20.020;2022-12-07T01:48:40;98294.44;;;1.67;100.00
28008;BME280;15333;50.010;20.020;2022-12-07T01:51:43;98287.44;;;1.66;100.00
28008;BME280;15333;50.010;20.020;2022-12-07T01:54:47;98286.81;;;1.61;100.00
28008;BME280;15333;50.010;20.020;2022-12-07T01:57:52;98292.72;;;1.66;100.00
28008;BME280;15333;50.010;20.020;2022-12-07T02:00:54;98287.88;;;1.57;100.00
28008;BME280;15333;50.010;20.020;2022-12-07T02:03:55;98287.72;;;1.60;100.00
28008;BME280;15333;50.010;20.020;2022-12-07T02:06:57;98282.59;;;1.57;100.00
28008;BME280;15333;50.010;20.020;2022-12-07T02:10:15;98280.25;;;1.51;100.00
28008;BME280;15333;50.010;20.020;2022-12-07T02:13:20;98276.56;;;1.55;100.00
28008;BME280;15333;50.010;20.020;2022-12-07T02:20:08;98269.88;;;1.48;100.00
28008;BME280;15333;50.010;20.020;2022-12-07T02:30:14;98280.97;;;1.54;100.00
28008;BME280;15333;50.010;20.020;2022-12-07T02:33:26;98281.34;;;1.47;100.00
28008;BME280;15333;50.010;20.020;2022-12-07T02:36:33;98279.06;;;1.39;100.00
28008;BME280;15333;50.010;20.020;2022-12-07T02:39:45;98274.00;;;1.35;100.00
28008;BME280;15333;50.010;20.020;2022-12-07T02:43:14;98274.00;;;1.35;100.00
28008;BME280;15333;50.010;20.020;2022-12-07T02:46:20;98264.22;;;1.37;100.00
28008;BME280;15333;50.010;20.020;2022-12-07T02:49:24;98267.16;;;1.31;100.00
28008;BME280;15333;50.010;20.020;2022-12-07T02:52:26;98268.31;;;1.25;100.00
28008;BME280;15333;50.010;20.020;2022-12-07T02:55:36;98271.00;;;1.24;100.00
28008;BME280;15333;50.010;20.020;2022-12-07T03:05:31;98258.75;;;1.23;100.00
28008;BME280;15333;50.010;20.020;2022-12-07T03:08:46;98254.22;;;1.26;100.00
28008;BME280;15333;50.010;20.020;2022-12-07T03:11:52;98260.19;;;1.30;100.00
28008;BME280;15333;50.010;20.020;2022-12-07T03:15:00;98265.50;;;1.28;100.00
28008;BME280;15333;50.010;20.020;2022-12-07T03:18:03;98258.47;;;1.29;100.00
28008;BME280;15333;50.010;20.020;2022-12-07T03:21:10;98255.06;;;1.27;100.00
28008;BME280;15333;50.010;20.020;2022-12-07T03:24:15;98257.75;;;1.25;100.00
28008;BME280;15333;50.010;20.020;2022-12-07T03:27:34;98254.22;;;1.26;100.00
28008;BME280;15333;50.010;20.020;2022-12-07T03:30:49;98254.91;;;1.30;100.00
28008;BME280;15333;50.010;20.020;2022-12-07T03:34:02;98248.06;;;1.26;100.00
28008;BME280;15333;50.010;20.020;2022-12-07T03:37:40;98248.66;;;1.32;100.00
28008;BME280;15333;50.010;20.020;2022-12-07T03:41:22;98239.25;;;1.27;100.00
28008;BME280;15333;50.010;20.020;2022-12-07T03:44:15;98239.38;;;1.24;100.00
28008;BME280;15333;50.010;20.020;2022-12-07T03:50:35;98232.25;;;1.26;100.00
28008;BME280;15333;50.010;20.020;2022-12-07T03:54:14;98233.81;;;1.30;100.00
28008;BME280;15333;50.010;20.020;2022-12-07T03:57:16;98229.97;;;1.37;100.00
28008;BME280;15333;50.010;20.020;2022-12-07T04:00:18;98228.72;;;1.27;100.00
28008;BME280;15333;50.010;20.020;2022-12-07T04:03:19;98231.19;;;1.30;100.00
28008;BME280;15333;50.010;20.020;2022-12-07T04:06:20;98224.69;;;1.37;100.00
28008;BME280;15333;50.010;20.020;2022-12-07T04:09:21;98217.72;;;1.36;100.00
28008;BME280;15333;50.010;20.020;2022-12-07T04:12:23;98231.97;;;1.32;100.00
28008;BME280;15333;50.010;20.020;2022-12-07T04:15:24;98228.72;;;1.27;100.00
28008;BME280;15333;50.010;20.020;2022-12-07T04:18:25;98224.13;;;1.30;100.00
28008;BME280;15333;50.010;20.020;2022-12-07T04:21:25;98225.41;;;1.22;100.00
28008;BME280;15333;50.010;20.020;2022-12-07T04:24:27;98220.00;;;1.25;100.00
28008;BME280;15333;50.010;20.020;2022-12-07T04:27:28;98221.44;;;1.32;100.00
28008;BME280;15333;50.010;20.020;2022-12-07T04:30:29;98222.28;;;1.32;100.00
28008;BME280;15333;50.010;20.020;2022-12-07T04:33:30;98217.06;;;1.31;100.00
28008;BME280;15333;50.010;20.020;2022-12-07T04:36:31;98210.03;;;1.31;100.00
28008;BME280;15333;50.010;20.020;2022-12-07T04:39:33;98223.41;;;1.45;100.00
28008;BME280;15333;50.010;20.020;2022-12-07T04:42:34;98220.41;;;1.53;100.00
28008;BME280;15333;50.010;20.020;2022-12-07T04:45:34;98224.94;;;1.49;100.00
28008;BME280;15333;50.010;20.020;2022-12-07T04:48:35;98217.53;;;1.57;100.00
28008;BME280;15333;50.010;20.020;2022-12-07T04:51:36;98218.25;;;1.61;100.00
28008;BME280;15333;50.010;20.020;2022-12-07T04:54:37;98212.97;;;1.61;100.00
28008;BME280;15333;50.010;20.020;2022-12-07T04:57:38;98209.41;;;1.62;100.00
28008;BME280;15333;50.010;20.020;2022-12-07T05:00:39;98208.31;;;1.66;100.00
28008;BME280;15333;50.010;20.020;2022-12-07T05:03:40;98216.09;;;1.69;100.00
28008;BME280;15333;50.010;20.020;2022-12-07T05:06:41;98208.72;;;1.76;100.00
28008;BME280;15333;50.010;20.020;2022-12-07T05:09:42;98206.16;;;1.74;100.00
28008;BME280;15333;50.010;20.020;2022-12-07T05:12:43;98206.09;;;1.76;100.00
28008;BME280;15333;50.010;20.020;2022-12-07T05:15:46;98200.91;;;1.91;100.00
28008;BME280;15333;50.010;20.020;2022-12-07T05:18:46;98204.31;;;1.93;100.00
28008;BME280;15333;50.010;20.020;2022-12-07T05:21:47;98212.00;;;1.98;100.00
28008;BME280;15333;50.010;20.020;2022-12-07T05:24:48;98208.50;;;1.98;100.00
28008;BME280;15333;50.010;20.020;2022-12-07T05:27:49;98216.25;;;2.01;100.00
28008;BME280;15333;50.010;20.020;2022-12-07T05:30:50;98211.91;;;2.00;100.00
28008;BME280;15333;50.010;20.020;2022-12-07T05:33:51;98210.66;;;2.07;100.00
28008;BME280;15333;50.010;20.020;2022-12-07T05:36:52;98218.91;;;2.01;100.00
28008;BME280;15333;50.010;20.020;2022-12-07T05:39:53;98223.09;;;2.05;100.00
28008;BME280;15333;50.010;20.020;2022-12-07T05:42:54;98220.00;;;1.96;100.00
28008;BME280;15333;50.010;20.020;2022-12-07T05:45:55;98226.81;;;2.01;100.00
28008;BME280;15333;50.010;20.020;2022-12-07T05:48:56;98222.63;;;1.96;100.00
28008;BME280;15333;50.010;20.020;2022-12-07T05:51:57;98224.66;;;1.91;100.00
28008;BME280;15333;50.010;20.020;2022-12-07T05:54:58;98220.31;;;1.90;100.00
28008;BME280;15333;50.010;20.020;2022-12-07T05:57:59;98227.56;;;1.85;100.00
28008;BME280;15333;50.010;20.020;2022-12-07T06:01:18;98227.13;;;1.77;100.00
28008;BME280;15333;50.010;20.020;2022-12-07T06:04:20;98226.16;;;1.78;100.00
28008;BME280;15333;50.010;20.020;2022-12-07T06:07:21;98231.31;;;1.81;100.00
28008;BME280;15333;50.010;20.020;2022-12-07T06:10:22;98234.19;;;1.77;100.00
28008;BME280;15333;50.010;20.020;2022-12-07T06:13:23;98235.31;;;1.71;100.00
28008;BME280;15333;50.010;20.020;2022-12-07T06:16:23;98231.19;;;1.66;100.00
28008;BME280;15333;50.010;20.020;2022-12-07T06:19:25;98240.88;;;1.65;100.00
28008;BME280;15333;50.010;20.020;2022-12-07T06:22:25;98235.00;;;1.60;100.00
28008;BME280;15333;50.010;20.020;2022-12-07T06:25:26;98240.56;;;1.54;100.00
28008;BME280;15333;50.010;20.020;2022-12-07T06:28:27;98239.94;;;1.49;100.00
28008;BME280;15333;50.010;20.020;2022-12-07T06:31:28;98238.13;;;1.49;100.00
28008;BME280;15333;50.010;20.020;2022-12-07T06:34:29;98241.56;;;1.51;100.00
28008;BME280;15333;50.010;20.020;2022-12-07T06:37:30;98240.22;;;1.43;100.00
28008;BME280;15333;50.010;20.020;2022-12-07T06:40:31;98243.13;;;1.37;100.00
28008;BME280;15333;50.010;20.020;2022-12-07T06:43:32;98241.59;;;1.33;100.00
28008;BME280;15333;50.010;20.020;2022-12-07T06:46:33;98236.38;;;1.31;100.00
28008;BME280;15333;50.010;20.020;2022-12-07T06:49:36;98245.28;;;1.29;100.00
28008;BME280;15333;50.010;20.020;2022-12-07T06:52:36;98245.94;;;1.34;100.00
28008;BME280;15333;50.010;20.020;2022-12-07T06:55:37;98254.59;;;1.36;100.00
28008;BME280;15333;50.010;20.020;2022-12-07T06:58:39;98258.03;;;1.38;100.00
28008;BME280;15333;50.010;20.020;2022-12-07T07:01:40;98258.97;;;1.37;100.00
28008;BME280;15333;50.010;20.020;2022-12-07T07:04:41;98258.03;;;1.38;100.00
28008;BME280;15333;50.010;20.020;2022-12-07T07:07:42;98258.81;;;1.40;100.00
28008;BME280;15333;50.010;20.020;2022-12-07T07:10:42;98259.53;;;1.43;100.00
28008;BME280;15333;50.010;20.020;2022-12-07T07:13:44;98258.75;;;1.41;100.00
28008;BME280;15333;50.010;20.020;2022-12-07T07:16:45;98262.88;;;1.47;100.00
28008;BME280;15333;50.010;20.020;2022-12-07T07:19:46;98264.66;;;1.46;100.00
28008;BME280;15333;50.010;20.020;2022-12-07T07:22:48;98268.34;;;1.42;100.00
28008;BME280;15333;50.010;20.020;2022-12-07T07:25:51;98269.88;;;1.48;100.00
28008;BME280;15333;50.010;20.020;2022-12-07T07:28:52;98258.81;;;1.40;100.00
28008;BME280;15333;50.010;20.020;2022-12-07T07:31:53;98263.19;;;1.41;100.00
28008;BME280;15333;50.010;20.020;2022-12-07T07:34:53;98268.28;;;1.44;100.00
28008;BME280;15333;50.010;20.020;2022-12-07T07:37:55;98263.31;;;1.38;100.00
28008;BME280;15333;50.010;20.020;2022-12-07T07:40:55;98256.31;;;1.37;100.00
28008;BME280;15333;50.010;20.020;2022-12-07T07:43:57;98263.19;;;1.41;100.00
28008;BME280;15333;50.010;20.020;2022-12-07T07:46:57;98265.38;;;1.31;100.00
28008;BME280;15333;50.010;20.020;2022-12-07T07:49:58;98259.13;;;1.34;100.00
28008;BME280;15333;50.010;20.020;2022-12-07T07:52:59;98265.88;;;1.39;100.00
28008;BME280;15333;50.010;20.020;2022-12-07T07:56:00;98265.44;;;1.30;100.00
28008;BME280;15333;50.010;20.020;2022-12-07T07:59:01;98272.59;;;1.28;100.00
28008;BME280;15333;50.010;20.020;2022-12-07T08:02:02;98276.44;;;1.21;100.00
28008;BME280;15333;50.010;20.020;2022-12-07T08:05:03;98278.69;;;1.28;100.00
28008;BME280;15333;50.010;20.020;2022-12-07T08:08:04;98276.00;;;1.30;100.00
28008;BME280;15333;50.010;20.020;2022-12-07T08:11:06;98277.88;;;1.28;100.00
28008;BME280;15333;50.010;20.020;2022-12-07T08:14:07;98282.06;;;1.32;100.00
28008;BME280;15333;50.010;20.020;2022-12-07T08:17:08;98280.41;;;1.29;100.00
28008;BME280;15333;50.010;20.020;2022-12-07T08:20:09;98285.69;;;1.29;100.00
28008;BME280;15333;50.010;20.020;2022-12-07T08:23:10;98295.34;;;1.29;100.00
28008;BME280;15333;50.010;20.020;2022-12-07T08:26:14;98294.94;;;1.38;100.00
28008;BME280;15333;50.010;20.020;2022-12-07T08:29:16;98292.31;;;1.38;100.00
28008;BME280;15333;50.010;20.020;2022-12-07T08:32:17;98291.25;;;1.42;100.00
28008;BME280;15333;50.010;20.020;2022-12-07T08:35:17;98298.31;;;1.41;100.00
28008;BME280;15333;50.010;20.020;2022-12-07T08:38:18;98294.94;;;1.38;100.00
28008;BME280;15333;50.010;20.020;2022-12-07T08:41:19;98295.66;;;1.41;100.00
28008;BME280;15333;50.010;20.020;2022-12-07T08:44:21;98301.06;;;1.57;100.00
28008;BME280;15333;50.010;20.020;2022-12-07T08:47:21;98300.13;;;1.58;100.00
28008;BME280;15333;50.010;20.020;2022-12-07T08:50:23;98308.50;;;1.49;100.00
28008;BME280;15333;50.010;20.020;2022-12-07T08:53:24;98299.63;;;1.50;100.00
28008;BME280;15333;50.010;20.020;2022-12-07T08:56:25;98306.31;;;1.57;100.00
28008;BME280;15333;50.010;20.020;2022-12-07T08:59:27;98307.84;;;1.63;100.00
28008;BME280;15333;50.010;20.020;2022-12-07T09:02:30;98300.06;;;1.60;100.00
28008;BME280;15333;50.010;20.020;2022-12-07T09:05:32;98311.19;;;1.66;100.00
28008;BME280;15333;50.010;20.020;2022-12-07T09:08:41;98302.34;;;1.67;100.00
28008;BME280;15333;50.010;20.020;2022-12-07T09:11:43;98311.59;;;1.76;100.00
28008;BME280;15333;50.010;20.020;2022-12-07T09:14:45;98304.88;;;1.87;100.00
28008;BME280;15333;50.010;20.020;2022-12-07T09:17:46;98311.22;;;1.83;100.00
28008;BME280;15333;50.010;20.020;2022-12-07T09:20:47;98307.38;;;1.90;100.00
28008;BME280;15333;50.010;20.020;2022-12-07T09:23:48;98300.16;;;1.94;100.00
28008;BME280;15333;50.010;20.020;2022-12-07T09:26:49;98297.84;;;2.05;100.00
28008;BME280;15333;50.010;20.020;2022-12-07T09:29:50;98300.41;;;2.07;100.00
28008;BME280;15333;50.010;20.020;2022-12-07T09:32:53;98297.53;;;2.11;100.00
28008;BME280;15333;50.010;20.020;2022-12-07T09:35:54;98288.75;;;2.28;100.00
28008;BME280;15333;50.010;20.020;2022-12-07T09:38:55;98284.28;;;2.30;100.00
28008;BME280;15333;50.010;20.020;2022-12-07T09:41:57;98291.28;;;2.48;100.00
28008;BME280;15333;50.010;20.020;2022-12-07T09:44:58;98291.09;;;2.51;100.00
28008;BME280;15333;50.010;20.020;2022-12-07T09:48:00;98290.97;;;2.54;100.00
28008;BME280;15333;50.010;20.020;2022-12-07T09:51:01;98291.75;;;2.39;100.00
28008;BME280;15333;50.010;20.020;2022-12-07T09:54:03;98279.78;;;2.32;100.00
28008;BME280;15333;50.010;20.020;2022-12-07T09:57:04;98287.91;;;2.27;100.00
28008;BME280;15333;50.010;20.020;2022-12-07T10:00:21;98284.28;;;2.30;100.00
28008;BME280;15333;50.010;20.020;2022-12-07T10:03:22;98290.03;;;2.38;100.00
28008;BME280;15333;50.010;20.020;2022-12-07T10:06:23;98289.41;;;2.33;100.00
28008;BME280;15333;50.010;20.020;2022-12-07T10:09:24;98280.31;;;2.39;100.00
28008;BME280;15333;50.010;20.020;2022-12-07T10:12:26;98278.53;;;2.39;100.00
28008;BME280;15333;50.010;20.020;2022-12-07T10:18:43;98271.53;;;2.55;100.00
28008;BME280;15333;50.010;20.020;2022-12-07T10:22:09;98264.22;;;2.60;100.00
28008;BME280;15333;50.010;20.020;2022-12-07T10:25:20;98266.09;;;2.58;100.00
28008;BME280;15333;50.010;20.020;2022-12-07T10:28:22;98270.53;;;2.41;100.00
28008;BME280;15333;50.010;20.020;2022-12-07T10:31:23;98265.53;;;2.34;100.00
28008;BME280;15333;50.010;20.020;2022-12-07T10:34:29;98263.63;;;2.38;100.00
28008;BME280;15333;50.010;20.020;2022-12-07T10:37:40;98264.06;;;2.29;100.00
28008;BME280;15333;50.010;20.020;2022-12-07T10:40:41;98255.09;;;2.33;100.00
28008;BME280;15333;50.010;20.020;2022-12-07T10:43:50;98256.94;;;2.48;100.00
28008;BME280;15333;50.010;20.020;2022-12-07T11:00:10;98245.28;;;2.85;100.00
28008;BME280;15333;50.010;20.020;2022-12-07T11:06:59;98236.19;;;2.91;100.00
28008;BME280;15333;50.010;20.020;2022-12-07T11:10:15;98220.16;;;2.94;100.00
28008;BME280;15333;50.010;20.020;2022-12-07T11:13:29;98229.00;;;2.93;100.00
28008;BME280;15333;50.010;20.020;2022-12-07T11:39:34;98206.88;;;3.42;100.00
28008;BME280;15333;50.010;20.020;2022-12-07T11:42:42;98209.78;;;3.53;100.00
28008;BME280;15333;50.010;20.020;2022-12-07T11:46:02;98207.31;;;3.50;100.00
28008;BME280;15333;50.010;20.020;2022-12-07T11:49:17;98204.72;;;3.65;100.00
28008;BME280;15333;50.010;20.020;2022-12-07T11:56:00;98207.28;;;3.66;100.00
28008;BME280;15333;50.010;20.020;2022-12-07T11:59:11;98199.38;;;3.50;100.00
28008;BME280;15333;50.010;20.020;2022-12-07T12:02:22;98197.31;;;3.55;100.00
28008;BME280;15333;50.010;20.020;2022-12-07T12:05:26;98195.94;;;3.48;100.00
28008;BME280;15333;50.010;20.020;2022-12-07T12:08:34;98197.00;;;3.46;100.00
28008;BME280;15333;50.010;20.020;2022-12-07T12:21:18;98187.00;;;3.35;100.00
28008;BME280;15333;50.010;20.020;2022-12-07T12:24:24;98184.34;;;3.35;100.00
28008;BME280;15333;50.010;20.020;2022-12-07T12:27:35;98179.84;;;3.37;99.92
28008;BME280;15333;50.010;20.020;2022-12-07T12:30:39;98176.25;;;3.38;98.49
28008;BME280;15333;50.010;20.020;2022-12-07T12:33:49;98179.06;;;3.35;97.16
28008;BME280;15333;50.010;20.020;2022-12-07T12:36:51;98170.53;;;3.30;99.16
28008;BME280;15333;50.010;20.020;2022-12-07T12:46:56;98168.31;;;3.38;93.21
28008;BME280;15333;50.010;20.020;2022-12-07T12:50:17;98163.97;;;3.37;92.11
28008;BME280;15333;50.010;20.020;2022-12-07T12:53:25;98177.03;;;3.40;90.40
28008;BME280;15333;50.010;20.020;2022-12-07T12:56:40;98173.13;;;3.32;92.29
28008;BME280;15333;50.010;20.020;2022-12-07T13:02:55;98172.25;;;3.31;90.01
28008;BME280;15333;50.010;20.020;2022-12-07T13:09:30;98183.00;;;3.28;89.92
28008;BME280;15333;50.010;20.020;2022-12-07T13:12:32;98176.19;;;3.24;89.34
28008;BME280;15333;50.010;20.020;2022-12-07T13:18:38;98176.97;;;3.26;87.49
28008;BME280;15333;50.010;20.020;2022-12-07T13:21:43;98179.09;;;3.20;86.53
28008;BME280;15333;50.010;20.020;2022-12-07T13:24:44;98168.84;;;3.29;87.42
28008;BME280;15333;50.010;20.020;2022-12-07T13:27:51;98166.13;;;3.31;87.49
28008;BME280;15333;50.010;20.020;2022-12-07T13:31:03;98173.34;;;3.27;86.69
28008;BME280;15333;50.010;20.020;2022-12-07T13:34:34;98176.53;;;3.18;87.34
28008;BME280;15333;50.010;20.020;2022-12-07T13:37:37;98179.53;;;3.12;86.42
28008;BME280;15333;50.010;20.020;2022-12-07T13:40:38;98184.53;;;3.01;87.20
28008;BME280;15333;50.010;20.020;2022-12-07T13:44:03;98188.44;;;2.94;87.79
28008;BME280;15333;50.010;20.020;2022-12-07T13:50:30;98202.91;;;2.87;89.36
28008;BME280;15333;50.010;20.020;2022-12-07T13:53:32;98202.59;;;2.93;88.56
28008;BME280;15333;50.010;20.020;2022-12-07T13:56:34;98203.63;;;2.90;89.55
28008;BME280;15333;50.010;20.020;2022-12-07T13:59:36;98212.22;;;2.94;89.55
28008;BME280;15333;50.010;20.020;2022-12-07T14:06:16;98202.44;;;2.96;89.36
28008;BME280;15333;50.010;20.020;2022-12-07T14:09:21;98209.91;;;2.88;90.48
28008;BME280;15333;50.010;20.020;2022-12-07T14:12:24;98204.78;;;2.85;91.99
28008;BME280;15333;50.010;20.020;2022-12-07T14:15:31;98210.78;;;2.88;90.66
28008;BME280;15333;50.010;20.020;2022-12-07T14:18:40;98203.41;;;2.78;90.37
28008;BME280;15333;50.010;20.020;2022-12-07T14:21:41;98215.34;;;2.69;90.99
28008;BME280;15333;50.010;20.020;2022-12-07T14:24:42;98214.81;;;2.62;91.40
28008;BME280;15333;50.010;20.020;2022-12-07T14:28:01;98219.47;;;2.57;91.68
28008;BME280;15333;50.010;20.020;2022-12-07T14:31:03;98215.69;;;2.46;92.40
28008;BME280;15333;50.010;20.020;2022-12-07T14:34:12;98223.56;;;2.30;93.97
28008;BME280;15333;50.010;20.020;2022-12-07T14:37:13;98220.44;;;2.39;91.80
28008;BME280;15333;50.010;20.020;2022-12-07T14:40:20;98221.69;;;2.32;91.62
28008;BME280;15333;50.010;20.020;2022-12-07T14:43:22;98218.34;;;2.46;89.76
28008;BME280;15333;50.010;20.020;2022-12-07T14:46:23;98220.72;;;2.50;88.73
28008;BME280;15333;50.010;20.020;2022-12-07T14:49:24;98221.03;;;2.44;88.71
28008;BME280;15333;50.010;20.020;2022-12-07T14:52:28;98217.16;;;2.51;88.37
28008;BME280;15333;50.010;20.020;2022-12-07T14:55:31;98219.19;;;2.46;88.36
28008;BME280;15333;50.010;20.020;2022-12-07T14:58:32;98210.94;;;2.85;88.84
28008;BME280;15333;50.010;20.020;2022-12-07T15:01:33;98206.34;;;2.89;89.58
28008;BME280;15333;50.010;20.020;2022-12-07T15:04:34;98212.78;;;2.67;91.04
28008;BME280;15333;50.010;20.020;2022-12-07T15:07:35;98209.25;;;3.00;92.27
28008;BME280;15333;50.010;20.020;2022-12-07T15:10:36;98210.91;;;2.69;91.67
28008;BME280;15333;50.010;20.020;2022-12-07T15:13:39;98215.09;;;2.41;94.42
28008;BME280;15333;50.010;20.020;2022-12-07T15:16:58;98214.56;;;2.34;95.27
28008;BME280;15333;50.010;20.020;2022-12-07T15:19:59;98215.75;;;2.44;93.00
28008;BME280;15333;50.010;20.020;2022-12-07T15:23:00;98221.22;;;2.41;94.22
28008;BME280;15333;50.010;20.020;2022-12-07T15:26:01;98219.66;;;2.37;93.78
28008;BME280;15333;50.010;20.020;2022-12-07T15:29:02;98211.13;;;2.32;93.74
28008;BME280;15333;50.010;20.020;2022-12-07T15:32:03;98217.81;;;2.39;93.18
28008;BME280;15333;50.010;20.020;2022-12-07T15:35:04;98220.44;;;2.39;93.09
28008;BME280;15333;50.010;20.020;2022-12-07T15:38:06;98225.53;;;2.42;93.36
28008;BME280;15333;50.010;20.020;2022-12-07T15:41:06;98232.00;;;2.36;93.83
28008;BME280;15333;50.010;20.020;2022-12-07T15:44:16;98237.06;;;2.41;92.56
28008;BME280;15333;50.010;20.020;2022-12-07T15:47:40;98244.66;;;2.47;92.22
28008;BME280;15333;50.010;20.020;2022-12-07T15:50:42;98247.13;;;2.50;91.09
28008;BME280;15333;50.010;20.020;2022-12-07T15:53:43;98248.69;;;2.54;92.34
28008;BME280;15333;50.010;20.020;2022-12-07T15:56:44;98250.09;;;2.44;94.39
28008;BME280;15333;50.010;20.020;2022-12-07T15:59:44;98251.75;;;2.47;92.86
28008;BME280;15333;50.010;20.020;2022-12-07T16:02:45;98251.41;;;2.53;92.02
28008;BME280;15333;50.010;20.020;2022-12-07T16:05:51;98257.56;;;2.53;91.60
28008;BME280;15333;50.010;20.020;2022-12-07T16:08:52;98250.88;;;2.46;92.78
28008;BME280;15333;50.010;20.020;2022-12-07T16:11:53;98255.84;;;2.52;92.44
28008;BME280;15333;50.010;20.020;2022-12-07T16:14:54;98263.31;;;2.44;93.05
28008;BME280;15333;50.010;20.020;2022-12-07T16:17:54;98259.81;;;2.61;93.61
28008;BME280;15333;50.010;20.020;2022-12-07T16:20:56;98250.53;;;2.69;91.84
28008;BME280;15333;50.010;20.020;2022-12-07T16:23:57;98263.25;;;2.79;92.71
28008;BME280;15333;50.010;20.020;2022-12-07T16:26:59;98260.84;;;2.74;92.71
28008;BME280;15333;50.010;20.020;2022-12-07T16:30:00;98257.94;;;2.63;92.25
28008;BME280;15333;50.010;20.020;2022-12-07T16:33:01;98261.38;;;2.81;92.42
28008;BME280;15333;50.010;20.020;2022-12-07T16:36:03;98252.69;;;2.79;91.49
28008;BME280;15333;50.010;20.020;2022-12-07T16:39:05;98257.81;;;2.82;90.07
28008;BME280;15333;50.010;20.020;2022-12-07T16:42:05;98259.41;;;2.68;91.25
28008;BME280;15333;50.010;20.020;2022-12-07T16:45:07;98262.03;;;2.68;90.35
28008;BME280;15333;50.010;20.020;2022-12-07T16:48:08;98252.06;;;2.73;89.88
28008;BME280;15333;50.010;20.020;2022-12-07T16:51:11;98256.06;;;2.65;88.71
28008;BME280;15333;50.010;20.020;2022-12-07T16:54:12;98260.84;;;2.74;87.48
28008;BME280;15333;50.010;20.020;2022-12-07T16:57:14;98263.56;;;2.72;87.93
28008;BME280;15333;50.010;20.020;2022-12-07T17:00:16;98264.97;;;2.80;88.06
28008;BME280;15333;50.010;20.020;2022-12-07T17:03:17;98258.81;;;2.79;87.57
28008;BME280;15333;50.010;20.020;2022-12-07T17:06:20;98268.38;;;2.82;85.98
28008;BME280;15333;50.010;20.020;2022-12-07T17:09:21;98269.25;;;2.82;86.87
28008;BME280;15333;50.010;20.020;2022-12-07T17:12:22;98260.91;;;2.90;84.65
28008;BME280;15333;50.010;20.020;2022-12-07T17:15:23;98263.22;;;2.96;85.48
28008;BME280;15333;50.010;20.020;2022-12-07T17:18:27;98257.41;;;2.89;85.71
28008;BME280;15333;50.010;20.020;2022-12-07T17:21:28;98259.19;;;2.89;84.55
28008;BME280;15333;50.010;20.020;2022-12-07T17:24:29;98262.78;;;2.88;84.22
28008;BME280;15333;50.010;20.020;2022-12-07T17:27:31;98267.69;;;2.78;83.84
28008;BME280;15333;50.010;20.020;2022-12-07T17:30:32;98270.56;;;2.73;83.98
28008;BME280;15333;50.010;20.020;2022-12-07T17:33:33;98260.47;;;2.64;84.69
28008;BME280;15333;50.010;20.020;2022-12-07T17:36:34;98273.41;;;2.53;85.07
28008;BME280;15333;50.010;20.020;2022-12-07T17:39:35;98274.66;;;2.46;85.00
28008;BME280;15333;50.010;20.020;2022-12-07T17:42:36;98279.59;;;2.35;85.53
28008;BME280;15333;50.010;20.020;2022-12-07T17:45:37;98279.91;;;2.29;86.25
28008;BME280;15333;50.010;20.020;2022-12-07T17:48:38;98278.84;;;2.33;86.28
28008;BME280;15333;50.010;20.020;2022-12-07T17:51:39;98278.53;;;2.22;86.16